Terminal Aerodrome Forecast
Issued by NWS Upton, NY

Home | Current Version | Previous Version | Text Only | Print | Product List | Glossary On
Versions: 1 2 3 4 5 6 7 8 9 10 11 12 13 14 15 16 17 18 19 20 21 22 23 24 25 26 27 28 29 30 31 32 33 34 35
182
FTUS41 KOKX 301432 AAA
TAFLGA
TAF AMD
KLGA 301432Z 3015/3112 05010KT P6SM FEW015 BKN120
     FM301800 12007KT P6SM FEW025 BKN120
     FM302000 16007KT P6SM SCT040 BKN120
     FM310000 15006KT P6SM SCT020 BKN050 PROB30 3102/3108 6SM -SHRA
     FM310800 13006KT 5SM -SHRA BR BKN020 BKN050=

USA.gov is the U.S. government's official web portal to all federal, state and local government web resources and services.